This demonstration page uses our WeatherBlox Daily Observations layout. Learn more.

39.92423, -83.80882

Hourly Observations for July 21, 2016

Temp ( °F °C ) Dew Point ( °F °C ) Humidity (%) Winds ( mph kmh ) Pressure ( in mb ) Visibility ( mi km ) Precip ( " mm )
12:56 am 00:56 Clear 67 19.4 65 18.3 93 93 ESE 3 6 30.19 1022 10 16.0934 0 0
1:56 am 01:56 Clear 67 19.4 64 17.8 91 91 SSE 3 6 30.17 1022 10 16.0934 0 0
2:56 am 02:56 Clear 66 18.9 63 17.2 90 90 Calm 30.16 1021 10 16.0934 0 0
3:56 am 03:56 Clear 68 20 64 17.8 87 87 SSE 6 9 30.16 1021 10 16.0934 0 0
4:56 am 04:56 Clear 70 21.1 63 17.2 79 79 S 6 9 30.16 1021 10 16.0934 0 0
5:56 am 05:56 Clear 68 20 63 17.2 84 84 SSW 5 7 N/A 10 16.0934 0 0
6:56 am 06:56 Sunny 69 20.6 63 17.2 81 81 undefined N/A N/A 10 16.0934 0 0
7:56 am 07:56 Sunny 72 22.2 65 18.3 79 79 Calm 30.18 1022 10 16.0934 0 0
8:56 am 08:56 Sunny 75 23.9 66 18.9 74 74 SW 7 11 30.18 1022 10 16.0934 0 0
9:56 am 09:56 Sunny 79 26.1 68 20 69 69 SSW 7 11 30.18 1022 10 16.0934 0 0
10:56 am 10:56 Sunny 81 27.2 67 19.4 62 62 SSW 10 17 30.16 1022 10 16.0934 0 0
11:56 am 11:56 Sunny 84 28.9 68 20 59 59 SSW 7 11 30.16 1022 10 16.0934 0 0
12:56 pm 12:56 Sunny 85 29.4 68 20 57 57 SW 8 13 30.16 1021 10 16.0934 0 0
1:56 pm 13:56 Mostly Sunny 86 30 69 20.6 57 57 WSW 6 9 30.15 1021 10 16.0934 0 0
2:56 pm 14:56 Mostly Sunny 87 30.6 70 21.1 57 57 S 6 9 30.13 1020 10 16.0934 0 0
3:56 pm 15:56 Mostly Sunny 88 31.1 70 21.1 55 55 SSW 7 11 30.09 1019 10 16.0934 0 0
4:56 pm 16:56 Mostly Cloudy 86 30 70 21.1 59 59 WSW 6 9 30.11 1020 10 16.0934 0 0
5:56 pm 17:56 Sunny 88 31.1 70 21.1 55 55 W 10 17 30.1 1019 10 16.0934 0 0
6:56 pm 18:56 Sunny 85 29.4 71 21.7 63 63 W 8 13 30.1 1019 10 16.0934 0 0
7:56 pm 19:56 Sunny 82 27.8 72 22.2 72 72 W 6 9 N/A 10 16.0934 0 0
8:56 pm 20:56 Sunny 77 25 69 20.6 77 77 SSW 7 11 30.01 1016 10 16.0934 0 0
9:56 pm 21:56 Clear 76 24.4 68 20 77 77 W 10 17 30.04 1017 10 16.0934 0 0.0254
10:56 pm 22:56 Clear 72 22.2 67 19.4 84 84 NW 3 6 N/A 10 16.0934 0 0
11:56 pm 23:56 Clear 69 20.6 67 19.4 93 93 Calm 30.08 1019 10 16.0934 0 0

Powered by AerisWeather